EDNYEDDS

Guest
Details From EDNY - Friedrichshafen
To EDDS - Stuttgart
Flight Number -
Tags Generated
Created
Modified
Stats Distance 62 nm / 116 km
Max Altitude 0 ft / 0 m
Waypoints 2
Social Downloads 3
Likes 0
Share VATSIM

Download

Looking for another format? Having issues loading an existing format? Contact us
Advertisement - Login to hide

Notes

Generated

Route

EDNY EDDS

ID Type Via Altitude Latitude Longitude Leg Dist Tot Dist Heading (true) Name
O EDNY APT - 0 ft / 0 m 47.66604˚ 9.49789˚ - 0 nm - -
O EDDS APT - 0 ft / 0 m 48.68573˚ 9.20013˚ 62 nm 62 nm 349° / 349° -

Altitude Profile

Advertisement - Login to hide

EDNY

Details ICAO EDNY (FDH)
Name Friedrichshafen
Region Germany - Civil
Timezone Europe/Berlin (UTC+1.0)
Stats Elevation 1,367 ft / 417 m (AMSL)
Location 47.670891° 9.508175°
Runways 2
Magnetic Variation 2.586° E

METAR

EDNY 150220Z AUTO 22017KT 9999 -SHRA FEW022 BKN051 OVC063 03/01 Q0998

Decode

TAF

TAF TAF EDNY 142300Z 1500/1524 23015G25KT 9999 BKN012 TEMPO 1500/1505 4000 RASN BKN008 PROB30 TEMPO 1502/1505 27025G40KT 2000 SHSNGS BKN004 BKN008CB BECMG 1514/1516 24005KT BECMG 1516/1518 VRB03KT

Decode

Departure Runways

ID Width Length Bearing (true) Bearing (mag) Surface Threshold Offset Overrun Length
06 148 ft / 45 m 7,738 ft / 2,359 m 60.02° 57.43° Asphalt 869 ft / 265 m 0 ft / 0 m
06L 92 ft / 28 m 3,167 ft / 965 m 60.04° 57.45° Grass 0 ft / 0 m 0 ft / 0 m
24 148 ft / 45 m 7,738 ft / 2,359 m 240.04° 237.45° Asphalt 676 ft / 206 m 89 ft / 27 m
24R 92 ft / 28 m 3,167 ft / 965 m 240.04° 237.45° Grass 0 ft / 0 m 0 ft / 0 m

EDDS

Details ICAO EDDS (STR)
Name Stuttgart
Region Germany - Civil
Timezone Europe/Berlin (UTC+1.0)
Stats Elevation 1,273 ft / 388 m (AMSL)
Location 48.689876° 9.221962°
Runways 1
Magnetic Variation 2.523° E

METAR

EDDS 150220Z 22011G21KT 180V240 9999 -RA BKN014 03/02 Q0994 RERA

Decode

TAF

TAF TAF EDDS 142300Z 1500/1524 20007KT 9999 BKN025 TEMPO 1500/1503 23015G25KT SHRA BKN020CB BECMG 1518/1521 VRB03KT

Decode

Destination Runways

ID Width Length Bearing (true) Bearing (mag) Surface Threshold Offset Overrun Length
07 148 ft / 45 m 10,950 ft / 3,337 m 73.96° 71.44° Concrete 981 ft / 299 m 157 ft / 48 m
25 148 ft / 45 m 10,950 ft / 3,337 m 253.99° 251.47° Concrete 0 ft / 0 m 157 ft / 48 m

Approach Navaids

Runway Type Ident Frequency Range Bearing (true) Bearing (mag) Slope Elevation
07 Localiser ISTE 110.90 MHz 18 nm / 33 km 73.99° 71.47° - 1,181 ft / 360 m (AMSL)
07 Glidescope ISTE 110.90 MHz 10 nm / 19 km 73.97° 71.45° 3.00° 1,267 ft / 386 m (AMSL)
07 DME ISTE 115.45 MHz 18 nm / 33 km - - - 1,332 ft / 406 m (AMSL)
25 Localiser ISTW 109.90 MHz 18 nm / 33 km 253.95° 251.42° - 1,267 ft / 386 m (AMSL)
25 Glidescope ISTW 109.90 MHz 10 nm / 19 km 253.97° 251.45° 3.00° 1,181 ft / 360 m (AMSL)
25 DME ISTW 115.45 MHz 18 nm / 33 km - - - 1,332 ft / 406 m (AMSL)

Popular Alternatives